createdAt,value
2018-12-24T04:01:00.796Z,989.47
2018-12-24T04:02:00.816Z,989.48
2018-12-24T04:03:00.964Z,989.47
2018-12-24T04:04:01.062Z,989.52
2018-12-24T04:05:01.243Z,989.48
2018-12-24T04:06:01.374Z,989.53
2018-12-24T04:07:01.551Z,989.56
2018-12-24T04:08:01.789Z,989.56
2018-12-24T04:09:01.800Z,989.54
2018-12-24T04:10:02.000Z,989.57
2018-12-24T04:11:02.171Z,989.58
2018-12-24T04:12:02.258Z,989.59
2018-12-24T04:13:02.497Z,989.57
2018-12-24T04:14:02.680Z,989.64
2018-12-24T04:15:02.750Z,989.63
2018-12-24T04:16:03.044Z,989.62
2018-12-24T04:17:03.098Z,989.67
2018-12-24T04:18:03.301Z,989.69
2018-12-24T04:19:03.470Z,989.67
2018-12-24T04:20:03.620Z,989.72
2018-12-24T04:21:03.730Z,989.71
2018-12-24T04:22:03.901Z,989.76
2018-12-24T04:23:04.020Z,989.77
2018-12-24T04:24:04.162Z,989.79
2018-12-24T04:25:04.328Z,989.82
2018-12-24T04:26:04.569Z,989.85
2018-12-24T04:27:04.686Z,989.82
2018-12-24T04:28:04.866Z,989.88
2018-12-24T04:29:05.015Z,989.87
2018-12-24T04:30:05.178Z,989.90
2018-12-24T04:31:05.348Z,989.96
2018-12-24T04:32:05.431Z,989.97
2018-12-24T04:33:05.627Z,990.01
2018-12-24T04:34:05.842Z,990.07
2018-12-24T04:35:05.981Z,990.04
2018-12-24T04:36:06.176Z,990.07
2018-12-24T04:37:06.304Z,990.10
2018-12-24T04:38:06.465Z,990.11
2018-12-24T04:39:06.611Z,990.11
2018-12-24T04:40:06.734Z,990.19
2018-12-24T04:41:06.944Z,990.15
2018-12-24T04:42:07.024Z,990.18
2018-12-24T04:43:07.264Z,990.29
2018-12-24T04:44:07.438Z,990.29
2018-12-24T04:45:07.689Z,990.28
2018-12-24T04:46:07.700Z,990.30
2018-12-24T04:47:07.849Z,990.38
2018-12-24T04:48:08.032Z,990.41
2018-12-24T04:49:08.230Z,990.44
2018-12-24T04:50:08.322Z,990.51
2018-12-24T04:51:08.489Z,990.53
2018-12-24T04:52:08.725Z,990.52
2018-12-24T04:53:08.800Z,990.57
2018-12-24T04:54:08.952Z,990.62
2018-12-24T04:55:09.120Z,990.64
2018-12-24T04:56:09.315Z,990.68
2018-12-24T04:57:09.430Z,990.70
2018-12-24T04:58:09.557Z,990.67
2018-12-24T04:59:09.732Z,990.72
2018-12-24T05:00:09.997Z,990.77
2018-12-24T05:01:10.025Z,990.79
2018-12-24T05:02:10.251Z,990.78
2018-12-24T05:03:10.398Z,990.80
2018-12-24T05:04:10.558Z,990.88
2018-12-24T05:05:10.648Z,990.91
2018-12-24T05:06:10.856Z,990.93
2018-12-24T05:07:11.051Z,991.03
2018-12-24T05:08:11.186Z,991.05
2018-12-24T05:09:11.303Z,991.13
2018-12-24T05:10:11.521Z,991.17
2018-12-24T05:11:11.642Z,991.15
2018-12-24T05:12:11.830Z,991.18
2018-12-24T05:13:12.030Z,991.26
2018-12-24T05:14:12.090Z,991.23
2018-12-24T05:15:12.259Z,991.28
2018-12-24T05:16:12.399Z,991.31
2018-12-24T05:17:12.535Z,991.39
2018-12-24T05:18:12.807Z,991.45
2018-12-24T05:19:12.971Z,991.50
2018-12-24T05:20:13.047Z,991.50
2018-12-24T05:21:13.217Z,991.56
2018-12-24T05:22:13.355Z,991.53
2018-12-24T05:23:13.559Z,991.65
2018-12-24T05:24:13.660Z,991.68
2018-12-24T05:25:13.891Z,991.71
2018-12-24T05:26:13.972Z,991.78
2018-12-24T05:27:14.207Z,991.82
2018-12-24T05:28:14.394Z,991.88
2018-12-24T05:29:14.505Z,991.91
2018-12-24T05:30:14.659Z,991.98
2018-12-24T05:31:14.749Z,992.03
2018-12-24T05:32:14.957Z,992.05
2018-12-24T05:33:15.150Z,992.09
2018-12-24T05:34:15.308Z,992.10
2018-12-24T05:35:15.504Z,992.14
2018-12-24T05:36:15.532Z,992.15
2018-12-24T05:37:15.703Z,992.19
2018-12-24T05:38:15.954Z,992.19
2018-12-24T05:39:16.044Z,992.23
2018-12-24T05:40:16.142Z,992.24
2018-12-24T05:41:16.395Z,992.29
2018-12-24T05:42:16.541Z,992.30
2018-12-24T05:43:16.685Z,992.31
2018-12-24T05:44:16.817Z,992.34
2018-12-24T05:45:17.058Z,992.45
2018-12-24T05:46:17.102Z,992.43
2018-12-24T05:47:17.327Z,992.49
2018-12-24T05:48:17.445Z,992.53
2018-12-24T05:49:17.619Z,992.49
2018-12-24T05:50:17.862Z,992.58
2018-12-24T05:51:17.972Z,992.68
2018-12-24T05:52:18.148Z,992.66
2018-12-24T05:53:18.244Z,992.73
2018-12-24T05:54:18.442Z,992.81
2018-12-24T05:55:18.575Z,992.77
2018-12-24T05:56:18.716Z,992.80
2018-12-24T05:57:18.916Z,992.77
2018-12-24T05:58:19.061Z,992.80
2018-12-24T05:59:19.298Z,992.84
2018-12-24T06:00:19.421Z,992.87
2018-12-24T06:01:19.514Z,992.82
2018-12-24T06:02:19.707Z,992.82
2018-12-24T06:03:19.886Z,992.88
2018-12-24T06:04:22.131Z,992.86
2018-12-24T06:05:20.119Z,992.88
2018-12-24T06:06:20.312Z,992.90
2018-12-24T06:07:20.524Z,992.94
2018-12-24T06:08:20.630Z,992.95
2018-12-24T06:09:20.825Z,993.04
2018-12-24T06:10:20.919Z,992.98
2018-12-24T06:11:21.095Z,993.07
2018-12-24T06:12:21.257Z,993.15
2018-12-24T06:13:21.433Z,993.14
2018-12-24T06:14:21.657Z,993.21
2018-12-24T06:15:21.734Z,993.26
2018-12-24T06:16:21.906Z,993.29
2018-12-24T06:17:22.099Z,993.29
2018-12-24T06:18:22.220Z,993.38
2018-12-24T06:19:22.433Z,993.39
2018-12-24T06:20:22.580Z,993.37
2018-12-24T06:21:22.746Z,993.41
2018-12-24T06:22:22.856Z,993.48
2018-12-24T06:23:23.063Z,993.50
2018-12-24T06:24:23.196Z,993.50
2018-12-24T06:25:23.309Z,993.48
2018-12-24T06:26:23.515Z,993.47
2018-12-24T06:27:23.691Z,993.47
2018-12-24T06:28:23.890Z,993.43
2018-12-24T06:29:24.030Z,993.50
2018-12-24T06:30:24.188Z,993.48
2018-12-24T06:31:24.306Z,993.53
2018-12-24T06:32:24.516Z,993.57
2018-12-24T06:33:24.666Z,993.62
2018-12-24T06:34:24.827Z,993.62
2018-12-24T06:35:24.979Z,993.65
2018-12-24T06:36:25.121Z,993.72
2018-12-24T06:37:26.182Z,993.74
2018-12-24T06:38:25.458Z,993.72
2018-12-24T06:39:25.622Z,993.74
2018-12-24T06:40:25.833Z,993.79
2018-12-24T06:41:25.951Z,993.82
2018-12-24T06:42:26.107Z,993.87
2018-12-24T06:43:26.261Z,993.94
2018-12-24T06:44:26.381Z,993.92
2018-12-24T06:45:26.578Z,993.98
2018-12-24T06:46:26.835Z,994.05
2018-12-24T06:47:26.946Z,994.11
2018-12-24T06:48:27.074Z,994.12
2018-12-24T06:49:27.263Z,994.11
2018-12-24T06:50:27.439Z,994.18
2018-12-24T06:51:27.494Z,994.19
2018-12-24T06:52:27.706Z,994.27
2018-12-24T06:53:27.864Z,994.28
2018-12-24T06:54:28.042Z,994.31
2018-12-24T06:55:28.200Z,994.39
2018-12-24T06:56:28.375Z,994.44
2018-12-24T06:57:28.544Z,994.46
2018-12-24T06:58:28.786Z,994.48
2018-12-24T06:59:28.946Z,994.53
2018-12-24T07:00:29.561Z,994.54
2018-12-24T07:01:29.370Z,994.57
2018-12-24T07:02:29.390Z,994.60
2018-12-24T07:03:29.679Z,994.65
2018-12-24T07:04:29.779Z,994.67
2018-12-24T07:05:29.938Z,994.71
2018-12-24T07:06:30.056Z,994.72
2018-12-24T07:07:30.263Z,994.74
2018-12-24T07:08:30.334Z,994.82
2018-12-24T07:09:30.538Z,994.82
2018-12-24T07:10:30.681Z,994.81
2018-12-24T07:11:30.908Z,994.88
2018-12-24T07:12:31.128Z,994.87
2018-12-24T07:13:31.215Z,994.92
2018-12-24T07:14:31.341Z,994.95
2018-12-24T07:15:31.478Z,995.01
2018-12-24T07:16:31.713Z,995.00
2018-12-24T07:17:31.865Z,995.05
2018-12-24T07:18:31.997Z,995.03
2018-12-24T07:19:32.177Z,995.12
2018-12-24T07:20:32.233Z,995.13
2018-12-24T07:21:32.501Z,995.14
2018-12-24T07:22:32.593Z,995.19
2018-12-24T07:23:32.772Z,995.16
2018-12-24T07:24:32.943Z,995.16
2018-12-24T07:25:33.562Z,995.18
2018-12-24T07:26:33.259Z,995.18
2018-12-24T07:27:33.360Z,995.19
2018-12-24T07:28:33.566Z,995.24
2018-12-24T07:29:33.674Z,995.25
2018-12-24T07:30:33.920Z,995.23
2018-12-24T07:31:33.978Z,995.27
2018-12-24T07:32:34.194Z,995.36
2018-12-24T07:33:35.570Z,995.34
2018-12-24T07:34:34.810Z,995.32
2018-12-24T07:35:44.942Z,995.35
2018-12-24T07:38:57.776Z,995.38
2018-12-24T07:39:58.048Z,995.40
2018-12-24T07:40:58.291Z,995.48
2018-12-24T07:41:58.867Z,995.52
2018-12-24T07:43:56.844Z,995.52
2018-12-24T07:44:56.738Z,995.55
2018-12-24T07:45:56.932Z,995.53
2018-12-24T07:46:56.954Z,995.55
2018-12-24T07:47:57.332Z,995.59
2018-12-24T07:48:57.330Z,995.63
2018-12-24T07:49:57.473Z,995.69
2018-12-24T07:50:57.536Z,995.68
2018-12-24T07:51:58.977Z,995.73
2018-12-24T07:52:57.904Z,995.78
2018-12-24T07:53:58.087Z,995.80
2018-12-24T07:54:58.268Z,995.82
2018-12-24T07:55:58.430Z,995.83
2018-12-24T07:56:58.529Z,995.84
2018-12-24T07:57:58.735Z,995.85
2018-12-24T07:58:58.846Z,995.94
2018-12-24T07:59:59.081Z,995.94
2018-12-24T08:00:59.182Z,995.94
2018-12-24T08:01:59.442Z,995.97
2018-12-24T08:02:59.570Z,995.95
2018-12-24T08:03:59.624Z,995.97
2018-12-24T08:05:00.556Z,996.00
2018-12-24T08:06:07.789Z,996.03
2018-12-24T08:07:02.818Z,996.05
2018-12-24T08:08:02.369Z,996.06
2018-12-24T08:09:00.516Z,996.13
2018-12-24T08:10:00.730Z,996.16
2018-12-24T08:11:00.765Z,996.10
2018-12-24T08:12:01.071Z,996.14
2018-12-24T08:13:01.305Z,996.17
2018-12-24T08:14:01.381Z,996.16
2018-12-24T08:15:01.431Z,996.27
2018-12-24T08:16:01.636Z,996.26
2018-12-24T08:17:01.815Z,996.33
2018-12-24T08:18:02.084Z,996.36
2018-12-24T08:19:11.394Z,996.38
2018-12-24T08:20:05.396Z,996.43
2018-12-24T08:21:04.797Z,996.40
2018-12-24T08:22:05.426Z,996.43
2018-12-24T08:23:02.966Z,996.47
2018-12-24T08:24:02.884Z,996.53
2018-12-24T08:25:03.084Z,996.55
2018-12-24T08:26:05.314Z,996.53
2018-12-24T08:30:21.053Z,996.57
2018-12-24T08:33:21.713Z,996.58
2018-12-24T08:34:19.303Z,996.59
2018-12-24T08:35:19.803Z,996.58
2018-12-24T08:36:31.904Z,996.65
2018-12-24T08:37:21.111Z,996.67
2018-12-24T08:39:56.259Z,996.73
2018-12-24T08:40:56.922Z,996.77
2018-12-24T08:50:35.344Z,997.05
2018-12-24T08:51:36.023Z,997.05
2018-12-24T08:52:36.282Z,997.08
2018-12-24T09:12:52.104Z,997.31
2018-12-24T09:30:11.844Z,997.70
2018-12-24T09:31:12.562Z,997.59
2018-12-24T09:33:12.785Z,997.55
2018-12-24T09:34:11.427Z,997.61
2018-12-24T09:35:10.698Z,997.59
2018-12-24T09:36:10.795Z,997.56
2018-12-24T09:37:10.965Z,997.69
2018-12-24T09:41:51.686Z,997.72
2018-12-24T09:43:00.194Z,997.82
2018-12-24T09:43:54.453Z,997.81
2018-12-24T09:48:40.480Z,997.82
2018-12-24T09:51:46.140Z,997.82
2018-12-24T09:57:06.241Z,997.97
2018-12-24T09:59:12.367Z,998.01
2018-12-24T10:00:08.097Z,998.06
2018-12-24T10:03:03.887Z,998.32
2018-12-24T10:04:03.673Z,998.19
2018-12-24T10:06:02.271Z,998.07
2018-12-24T10:07:02.846Z,998.06
2018-12-24T10:08:02.622Z,998.13
2018-12-24T10:09:03.407Z,998.18
2018-12-24T10:10:03.289Z,998.16
2018-12-24T10:11:03.651Z,998.21
2018-12-24T10:12:07.280Z,998.21
2018-12-24T10:13:15.131Z,998.22
2018-12-24T10:14:04.269Z,998.24
2018-12-24T10:15:08.079Z,998.21
2018-12-24T10:36:00.128Z,998.42
2018-12-24T10:37:00.917Z,998.47
2018-12-24T10:37:51.023Z,998.48
2018-12-24T10:40:49.948Z,998.53
2018-12-24T10:51:01.174Z,998.69
2018-12-24T10:51:46.567Z,998.74
2018-12-24T10:52:45.748Z,998.76
2018-12-24T10:53:47.465Z,998.77
2018-12-24T10:54:47.167Z,998.83
2018-12-24T10:55:47.693Z,998.85
2018-12-24T10:56:48.248Z,998.87
2018-12-24T10:57:46.251Z,998.84
2018-12-24T11:01:20.639Z,998.86
2018-12-24T11:02:23.243Z,998.87
2018-12-24T11:03:28.762Z,998.89
2018-12-24T11:08:08.963Z,998.93
2018-12-24T11:09:09.541Z,998.97
2018-12-24T11:11:11.114Z,999.02
2018-12-24T11:12:11.839Z,999.00
2018-12-24T11:13:10.636Z,999.06
2018-12-24T11:33:04.904Z,999.04
2018-12-24T11:40:57.110Z,999.19
2018-12-24T11:41:48.476Z,999.16
2018-12-24T11:42:50.702Z,999.24
2018-12-24T11:43:49.116Z,999.25
2018-12-24T11:47:30.914Z,999.19
2018-12-24T11:48:32.127Z,999.17
2018-12-24T12:02:09.961Z,999.28
2018-12-24T12:03:09.916Z,999.31
2018-12-24T12:13:59.416Z,999.51
2018-12-24T12:15:12.979Z,999.49
2018-12-24T12:16:04.377Z,999.44
2018-12-24T12:16:59.686Z,999.49
2018-12-24T12:18:12.492Z,999.47
2018-12-24T12:19:07.168Z,999.47
2018-12-24T12:20:02.607Z,999.51
2018-12-24T12:21:06.269Z,999.47
2018-12-24T12:22:06.561Z,999.57
2018-12-24T12:22:59.830Z,999.79
2018-12-24T12:23:59.483Z,999.65
2018-12-24T12:24:59.328Z,999.67
2018-12-24T12:25:59.538Z,999.91
2018-12-24T12:31:51.052Z,999.80
2018-12-24T12:34:42.389Z,999.81
2018-12-24T12:35:42.342Z,999.81
2018-12-24T12:36:33.892Z,999.82
2018-12-24T12:57:31.306Z,1000.13
2018-12-24T13:00:15.648Z,1000.17
2018-12-24T13:01:24.815Z,1000.15
2018-12-24T13:02:18.963Z,1000.22
2018-12-24T13:04:17.646Z,1000.24
2018-12-24T13:08:52.322Z,1000.42
2018-12-24T13:09:53.794Z,1000.45
2018-12-24T13:11:00.381Z,1000.50
2018-12-24T13:11:52.202Z,1000.48
2018-12-24T13:12:52.919Z,1000.51
2018-12-24T13:13:53.853Z,1000.52
2018-12-24T13:14:53.169Z,1000.51
2018-12-24T13:32:57.582Z,1000.86
2018-12-24T13:33:36.711Z,1000.92
2018-12-24T13:36:27.079Z,1001.05
2018-12-24T13:37:26.158Z,1001.12
2018-12-24T13:38:26.622Z,1001.13
2018-12-24T13:42:29.572Z,1001.28
2018-12-24T13:43:31.433Z,1001.31
2018-12-24T13:44:31.626Z,1001.32
2018-12-24T13:45:30.916Z,1001.28
2018-12-24T13:46:36.981Z,1001.23
2018-12-24T13:47:36.873Z,1001.20
2018-12-24T13:49:33.389Z,1001.23
2018-12-24T13:50:36.187Z,1001.34
2018-12-24T13:51:38.029Z,1001.39
2018-12-24T13:52:31.685Z,1001.41
2018-12-24T13:53:41.704Z,1001.42
2018-12-24T13:54:33.073Z,1001.41
2018-12-24T13:58:59.969Z,1001.38
2018-12-24T13:59:58.526Z,1001.37
2018-12-24T14:01:14.177Z,1001.38
2018-12-24T14:24:10.929Z,1002.00
2018-12-24T14:25:11.074Z,1001.99
2018-12-24T14:26:11.559Z,1001.95
2018-12-24T14:27:11.287Z,1001.97
2018-12-24T14:28:11.562Z,1001.97
2018-12-24T14:29:12.853Z,1001.97
2018-12-24T14:30:14.536Z,1001.97
2018-12-24T14:31:17.154Z,1001.99
2018-12-24T14:32:14.004Z,1002.03
2018-12-24T14:33:15.974Z,1002.01
2018-12-24T14:34:14.018Z,1002.04
2018-12-24T14:35:17.566Z,1002.01
2018-12-24T14:36:15.975Z,1002.05
2018-12-24T15:41:27.640Z,1003.04
2018-12-24T15:42:03.558Z,1003.04
2018-12-24T15:42:57.155Z,1003.00
2018-12-24T15:43:56.617Z,1003.01
2018-12-24T15:44:56.960Z,1003.02
2018-12-24T15:45:57.100Z,1003.04
2018-12-24T15:47:57.204Z,1003.14
2018-12-24T15:48:57.206Z,1003.10
2018-12-24T15:49:57.524Z,1003.12
2018-12-24T15:50:58.186Z,1003.19
2018-12-24T15:51:57.045Z,1003.16
2018-12-24T15:52:59.858Z,1003.17
2018-12-24T15:55:39.437Z,1003.21
2018-12-24T15:56:40.246Z,1003.21
2018-12-24T15:57:40.482Z,1003.21
2018-12-24T15:58:40.030Z,1003.19
2018-12-24T15:59:40.100Z,1003.18
2018-12-24T16:00:40.774Z,1003.24
2018-12-24T16:01:40.613Z,1003.28
2018-12-24T16:02:40.887Z,1003.27
2018-12-24T16:04:41.302Z,1003.30
2018-12-24T16:05:41.843Z,1003.35
2018-12-24T16:06:41.157Z,1003.29
2018-12-24T16:07:41.486Z,1003.36
2018-12-24T16:08:41.874Z,1003.40
2018-12-24T16:09:41.974Z,1003.41
2018-12-24T16:11:41.781Z,1003.49
2018-12-24T16:12:40.324Z,1003.51
2018-12-24T16:13:40.326Z,1003.53
2018-12-24T16:14:40.520Z,1003.51
2018-12-24T16:15:40.633Z,1003.52
2018-12-24T16:16:40.826Z,1003.57
2018-12-24T16:17:40.996Z,1003.47
2018-12-24T16:18:41.096Z,1003.62
2018-12-24T16:19:42.155Z,1003.61
2018-12-24T16:20:41.419Z,1003.60
2018-12-24T16:21:41.603Z,1003.64
2018-12-24T16:22:41.697Z,1003.64
2018-12-24T16:23:41.891Z,1003.68
2018-12-24T16:24:42.042Z,1003.71
2018-12-24T16:25:42.221Z,1003.77
2018-12-24T16:26:42.412Z,1003.80
2018-12-24T16:27:42.584Z,1003.78
2018-12-24T16:28:42.730Z,1003.81
2018-12-24T16:29:42.912Z,1003.82
2018-12-24T16:30:43.058Z,1003.84
2018-12-24T16:31:43.110Z,1003.84
2018-12-24T16:32:43.393Z,1003.86
2018-12-24T16:33:43.502Z,1003.85
2018-12-24T16:34:43.733Z,1003.88
2018-12-24T16:35:43.852Z,1003.91
2018-12-24T16:36:44.018Z,1003.92
2018-12-24T16:37:44.133Z,1003.93
2018-12-24T16:38:44.311Z,1003.90
2018-12-24T16:39:44.487Z,1003.92
2018-12-24T16:40:44.685Z,1003.93
2018-12-24T16:41:44.804Z,1004.01
2018-12-24T16:42:44.979Z,1004.00
2018-12-24T16:43:45.151Z,1004.03
2018-12-24T16:44:45.388Z,1004.05
2018-12-24T16:45:45.439Z,1004.02
2018-12-24T16:46:45.649Z,1004.03
2018-12-24T16:47:45.754Z,1004.09
2018-12-24T16:48:45.955Z,1004.07
2018-12-24T16:49:46.104Z,1004.14
2018-12-24T16:50:46.177Z,1004.17
2018-12-24T16:51:46.393Z,1004.19
2018-12-24T16:52:46.548Z,1004.19
2018-12-24T16:53:46.765Z,1004.23
2018-12-24T16:54:46.876Z,1004.21
2018-12-24T16:55:47.110Z,1004.22
2018-12-24T16:56:47.179Z,1004.14
2018-12-24T16:57:47.434Z,1004.14
2018-12-24T16:58:47.500Z,1004.09
2018-12-24T16:59:47.684Z,1004.14
2018-12-24T17:00:47.767Z,1004.07
2018-12-24T17:01:47.998Z,1004.13
2018-12-24T17:02:48.175Z,1004.13
2018-12-24T17:03:48.315Z,1004.14
2018-12-24T17:04:48.451Z,1004.11
2018-12-24T17:05:48.646Z,1004.12
2018-12-24T17:06:48.805Z,1004.14
2018-12-24T17:07:48.902Z,1004.11
2018-12-24T17:08:49.135Z,1004.12
2018-12-24T17:09:49.223Z,1004.09
2018-12-24T17:10:49.477Z,1004.12
2018-12-24T17:11:49.651Z,1004.13
2018-12-24T17:12:49.820Z,1004.14
2018-12-24T17:13:50.004Z,1004.18
2018-12-24T17:14:50.102Z,1004.18
2018-12-24T17:15:50.284Z,1004.14
2018-12-24T17:16:50.460Z,1004.15
2018-12-24T17:17:50.612Z,1004.10
2018-12-24T17:18:50.737Z,1004.11
2018-12-24T17:19:50.861Z,1004.09
2018-12-24T17:20:51.096Z,1004.07
2018-12-24T17:21:51.145Z,1004.08
2018-12-24T17:22:51.367Z,1004.04
2018-12-24T17:23:51.526Z,1004.08
2018-12-24T17:24:51.655Z,1004.11
2018-12-24T17:25:51.874Z,1004.18
2018-12-24T17:26:52.012Z,1004.25
2018-12-24T17:27:52.235Z,1004.26
2018-12-24T17:28:52.358Z,1004.26
2018-12-24T17:29:52.595Z,1004.21
2018-12-24T17:30:52.776Z,1004.17
2018-12-24T17:31:52.920Z,1004.10
2018-12-24T17:32:53.147Z,1004.06
2018-12-24T17:33:53.244Z,1004.07
2018-12-24T17:34:53.338Z,1004.06
2018-12-24T17:35:53.571Z,1004.02
2018-12-24T17:36:53.731Z,1004.03
2018-12-24T17:37:53.848Z,1004.05
2018-12-24T17:38:54.031Z,1004.08
2018-12-24T17:39:54.148Z,1004.10
2018-12-24T17:40:54.302Z,1004.14
2018-12-24T17:41:54.468Z,1004.15
2018-12-24T17:42:54.664Z,1004.18
2018-12-24T17:43:54.738Z,1004.24
2018-12-24T17:44:54.942Z,1004.35
2018-12-24T17:45:55.110Z,1004.43
2018-12-24T17:46:55.267Z,1004.50
2018-12-24T17:47:55.417Z,1004.50
2018-12-24T17:48:55.573Z,1004.53
2018-12-24T17:49:55.684Z,1004.50
2018-12-24T17:50:55.919Z,1004.51
2018-12-24T17:51:56.093Z,1004.52
2018-12-24T17:52:56.228Z,1004.51
2018-12-24T17:53:56.378Z,1004.49
2018-12-24T17:54:56.541Z,1004.49
2018-12-24T17:55:56.691Z,1004.50
2018-12-24T17:56:56.766Z,1004.53
2018-12-24T17:57:56.928Z,1004.55
2018-12-24T17:58:57.106Z,1004.62
2018-12-24T17:59:57.262Z,1004.65
2018-12-24T18:00:57.502Z,1004.64
2018-12-24T18:01:57.676Z,1004.62
2018-12-24T18:02:57.782Z,1004.57
2018-12-24T18:03:57.903Z,1004.58
2018-12-24T18:04:58.132Z,1004.64
2018-12-24T18:05:58.252Z,1004.61
2018-12-24T18:06:59.151Z,1004.62
2018-12-24T18:07:58.717Z,1004.61
2018-12-24T18:08:58.809Z,1004.64
2018-12-24T18:09:58.998Z,1004.63
2018-12-24T18:10:59.075Z,1004.61
2018-12-24T18:11:59.242Z,1004.56
2018-12-24T18:12:59.501Z,1004.55
2018-12-24T18:13:59.635Z,1004.53
2018-12-24T18:14:59.783Z,1004.50
2018-12-24T18:15:59.953Z,1004.53
2018-12-24T18:17:00.095Z,1004.51
2018-12-24T18:18:00.315Z,1004.55
2018-12-24T18:19:00.454Z,1004.55
2018-12-24T18:20:00.631Z,1004.60
2018-12-24T18:21:00.805Z,1004.62
2018-12-24T18:22:00.927Z,1004.66
2018-12-24T18:23:01.093Z,1004.60
2018-12-24T18:24:01.181Z,1004.61
2018-12-24T18:25:01.452Z,1004.63
2018-12-24T18:26:01.572Z,1004.64
2018-12-24T18:27:01.708Z,1004.64
2018-12-24T18:28:01.895Z,1004.66
2018-12-24T18:29:02.036Z,1004.67
2018-12-24T18:30:02.213Z,1004.66
2018-12-24T18:31:02.431Z,1004.66
2018-12-24T18:32:02.508Z,1004.73
2018-12-24T18:33:02.668Z,1004.79
2018-12-24T18:34:02.820Z,1004.81
2018-12-24T18:35:02.967Z,1004.83
2018-12-24T18:36:03.149Z,1004.85
2018-12-24T18:37:03.247Z,1004.82
2018-12-24T18:38:03.471Z,1004.92
2018-12-24T18:39:03.579Z,1005.00
2018-12-24T18:40:03.771Z,1004.98
2018-12-24T18:41:03.975Z,1004.91
2018-12-24T18:42:04.087Z,1004.79
2018-12-24T18:43:04.348Z,1004.80
2018-12-24T18:44:04.390Z,1004.82
2018-12-24T18:45:04.620Z,1004.84
2018-12-24T18:46:04.801Z,1004.87
2018-12-24T18:47:04.885Z,1004.88
2018-12-24T18:48:05.115Z,1004.86
2018-12-24T18:49:05.218Z,1004.91
2018-12-24T18:50:05.337Z,1004.96
2018-12-24T18:51:05.511Z,1004.98
2018-12-24T18:52:05.696Z,1004.94
2018-12-24T18:53:05.844Z,1004.96
2018-12-24T18:54:06.027Z,1005.02
2018-12-24T18:55:06.175Z,1005.03
2018-12-24T18:56:06.299Z,1004.99
2018-12-24T18:57:06.512Z,1005.01
2018-12-24T18:58:06.686Z,1005.02
2018-12-24T18:59:06.861Z,1005.07
2018-12-24T19:00:07.015Z,1005.09
2018-12-24T19:01:07.063Z,1005.09
2018-12-24T19:02:07.232Z,1005.11
2018-12-24T19:03:07.425Z,1005.12
2018-12-24T19:04:07.615Z,1005.09
2018-12-24T19:05:07.724Z,1005.04
2018-12-24T19:06:07.874Z,1005.02
2018-12-24T19:07:08.033Z,1005.02
2018-12-24T19:08:08.217Z,1005.05
2018-12-24T19:09:08.333Z,1005.06
2018-12-24T19:10:08.527Z,1005.09
2018-12-24T19:11:08.653Z,1005.11
2018-12-24T19:12:08.914Z,1005.11
2018-12-24T19:13:08.996Z,1005.14
2018-12-24T19:14:09.206Z,1005.08
2018-12-24T19:15:09.272Z,1005.05
2018-12-24T19:16:09.453Z,1005.09
2018-12-24T19:17:09.606Z,1005.11
2018-12-24T19:18:09.832Z,1005.09
2018-12-24T19:19:10.017Z,1005.10
2018-12-24T19:20:10.150Z,1005.08
2018-12-24T19:21:10.328Z,1005.09
2018-12-24T19:22:10.380Z,1005.11
2018-12-24T19:23:10.640Z,1005.07
2018-12-24T19:24:10.748Z,1005.03
2018-12-24T19:25:10.957Z,1005.10
2018-12-24T19:26:11.127Z,1005.07
2018-12-24T19:27:11.282Z,1005.09
2018-12-24T19:28:11.511Z,1005.01
2018-12-24T19:29:11.668Z,1005.00
2018-12-24T19:30:11.811Z,1004.93
2018-12-24T19:31:11.988Z,1004.91
2018-12-24T19:32:12.066Z,1004.84
2018-12-24T19:33:12.263Z,1004.83
2018-12-24T19:34:12.417Z,1004.84
2018-12-24T19:35:12.502Z,1004.81
2018-12-24T19:36:12.733Z,1004.80
2018-12-24T19:37:13.806Z,1004.73
2018-12-24T19:38:13.024Z,1004.73
2018-12-24T19:39:13.236Z,1004.64
2018-12-24T19:40:13.430Z,1004.63
2018-12-24T19:41:13.553Z,1004.57
2018-12-24T19:42:13.715Z,1004.53
2018-12-24T19:43:13.799Z,1004.51
2018-12-24T19:44:14.003Z,1004.51
2018-12-24T19:45:14.133Z,1004.52
2018-12-24T19:46:14.390Z,1004.51
2018-12-24T19:47:14.524Z,1004.53
2018-12-24T19:48:14.665Z,1004.54
2018-12-24T19:49:14.785Z,1004.63
2018-12-24T19:50:14.955Z,1004.59
2018-12-24T19:51:15.150Z,1004.59
2018-12-24T19:52:15.338Z,1004.59
2018-12-24T19:53:15.431Z,1004.58
2018-12-24T19:54:15.568Z,1004.58
2018-12-24T19:55:15.808Z,1004.55
2018-12-24T19:56:15.937Z,1004.57
2018-12-24T19:57:16.112Z,1004.53
2018-12-24T19:58:16.214Z,1004.58
2018-12-24T19:59:16.368Z,1004.55
2018-12-24T20:00:16.543Z,1004.61
2018-12-24T20:01:16.707Z,1004.58
2018-12-24T20:02:16.860Z,1004.60
2018-12-24T20:03:16.978Z,1004.63
2018-12-24T20:04:17.116Z,1004.64
2018-12-24T20:05:17.249Z,1004.59
2018-12-24T20:06:17.427Z,1004.57
2018-12-24T20:07:17.722Z,1004.56
2018-12-24T20:08:17.841Z,1004.54
2018-12-24T20:09:17.997Z,1004.62
2018-12-24T20:10:18.164Z,1004.63
2018-12-24T20:11:18.274Z,1004.58
2018-12-24T20:12:18.440Z,1004.56
2018-12-24T20:13:18.629Z,1004.59
2018-12-24T20:14:18.824Z,1004.57
2018-12-24T20:15:18.931Z,1004.60
2018-12-24T20:16:19.101Z,1004.56
2018-12-24T20:17:19.263Z,1004.59
2018-12-24T20:18:19.370Z,1004.61
2018-12-24T20:19:19.593Z,1004.61
2018-12-24T20:20:19.795Z,1004.59
2018-12-24T20:21:19.913Z,1004.63
2018-12-24T20:22:20.063Z,1004.64
2018-12-24T20:23:20.204Z,1004.61
2018-12-24T20:24:20.386Z,1004.67
2018-12-24T20:25:20.493Z,1004.73
2018-12-24T20:26:20.667Z,1004.72
2018-12-24T20:27:20.767Z,1004.73
2018-12-24T20:28:21.032Z,1004.71
2018-12-24T20:29:21.131Z,1004.70
2018-12-24T20:30:21.267Z,1004.72
2018-12-24T20:31:21.455Z,1004.70
2018-12-24T20:32:21.600Z,1004.76
2018-12-24T20:33:21.739Z,1004.80
2018-12-24T20:34:21.914Z,1004.81
2018-12-24T20:35:22.003Z,1004.88
2018-12-24T20:36:22.219Z,1004.86
2018-12-24T20:37:22.378Z,1004.91
2018-12-24T20:38:22.610Z,1004.95
2018-12-24T20:39:22.757Z,1004.98
2018-12-24T20:40:22.888Z,1004.96
2018-12-24T20:41:23.052Z,1004.95
2018-12-24T20:42:23.173Z,1005.01
2018-12-24T20:43:23.331Z,1004.93
2018-12-24T20:44:23.525Z,1005.01
2018-12-24T20:45:23.634Z,1005.02
2018-12-24T20:46:23.837Z,1005.03
2018-12-24T20:47:24.033Z,1005.05
2018-12-24T20:48:24.167Z,1005.05
2018-12-24T20:49:24.262Z,1005.09
2018-12-24T20:50:24.461Z,1005.04
2018-12-24T20:51:24.661Z,1005.06
2018-12-24T20:52:24.762Z,1005.07
2018-12-24T20:53:24.878Z,1005.14
2018-12-24T20:54:25.056Z,1005.16
2018-12-24T20:55:25.219Z,1005.22
2018-12-24T20:56:26.369Z,1005.23
2018-12-24T20:57:25.587Z,1005.24
2018-12-24T20:58:25.783Z,1005.32
2018-12-24T20:59:25.888Z,1005.29
2018-12-24T21:00:26.053Z,1005.29
2018-12-24T21:01:26.194Z,1005.26
2018-12-24T21:02:26.494Z,1005.24
2018-12-24T21:03:26.504Z,1005.25
2018-12-24T21:04:26.754Z,1005.29
2018-12-24T21:05:26.856Z,1005.28
2018-12-24T21:06:26.977Z,1005.26
2018-12-24T21:07:27.147Z,1005.27
2018-12-24T21:08:27.361Z,1005.25
2018-12-24T21:09:27.423Z,1005.23
2018-12-24T21:10:27.651Z,1005.24
2018-12-24T21:11:27.789Z,1005.30
2018-12-24T21:12:27.918Z,1005.31
2018-12-24T21:13:28.098Z,1005.30
2018-12-24T21:14:28.318Z,1005.33
2018-12-24T21:15:28.445Z,1005.31
2018-12-24T21:16:28.579Z,1005.34
2018-12-24T21:17:28.730Z,1005.41
2018-12-24T21:18:28.937Z,1005.32
2018-12-24T21:19:29.077Z,1005.32
2018-12-24T21:20:29.198Z,1005.32
2018-12-24T21:21:29.422Z,1005.31
2018-12-24T21:22:29.617Z,1005.30
2018-12-24T21:23:29.727Z,1005.29
2018-12-24T21:24:29.874Z,1005.30
2018-12-24T21:25:30.027Z,1005.30
2018-12-24T21:26:30.132Z,1005.33
2018-12-24T21:27:30.348Z,1005.29
2018-12-24T21:28:30.467Z,1005.33
2018-12-24T21:29:30.602Z,1005.35
2018-12-24T21:30:30.803Z,1005.33